Time;durP1;ratioP1;P1;durP2;ratioP2;P2;SDS_P1;SDS_P2;PMS_P1;PMS_P2;Temp;Humidity;BMP_temperature;BMP_pressure;BME280_temperature;BME280_humidity;BME280_pressure;Samples;Min_cycle;Max_cycle;Signal;HPM_P1;HPM_P2
2023/03/13 00:00:25;;;;;;;;;;;7.20;99.90;;;;;;4970367;28;19930;-88
2023/03/13 00:02:52;;;;;;;;;;;7.20;99.90;;;;;;4975983;28;19956;-91
2023/03/13 00:05:19;;;;;;;;;;;7.20;99.90;;;;;;4973895;28;19949;-91
2023/03/13 00:07:46;;;;;;;;;;;7.10;99.90;;;;;;4964779;28;19926;-91
2023/03/13 00:10:12;;;;;;;;;;;7.10;99.90;;;;;;4971760;28;20697;-91
2023/03/13 00:12:39;;;;;;;;;;;7.10;99.90;;;;;;4970971;28;19934;-90
2023/03/13 00:15:08;;;;;;;;;;;7.10;99.90;;;;;;4966839;28;21602;-90
2023/03/13 00:17:35;;;;;;;;;;;7.10;99.90;;;;;;4977046;28;20021;-91
2023/03/13 00:20:02;;;;;;;;;;;7.10;99.90;;;;;;4974400;28;19940;-90
2023/03/13 00:22:29;;;;;;;;;;;7.10;99.90;;;;;;4969580;28;20013;-90
2023/03/13 00:24:57;;;;;;;;;;;7.10;99.90;;;;;;4972979;28;19926;-89
2023/03/13 00:27:24;;;;;;;;;;;7.10;99.90;;;;;;4971549;28;20343;-92
2023/03/13 00:29:51;;;;;;;;;;;7.10;99.90;;;;;;4976519;28;20029;-91
2023/03/13 00:32:19;;;;;;;;;;;7.10;99.90;;;;;;4970899;28;19926;-90
2023/03/13 00:34:46;;;;;;;;;;;7.10;99.90;;;;;;4976272;28;20391;-91
2023/03/13 00:37:14;;;;;;;;;;;7.00;99.90;;;;;;4971748;28;19926;-91
2023/03/13 00:39:41;;;;;;;;;;;7.00;99.90;;;;;;4974327;28;19976;-89
2023/03/13 00:42:08;;;;;;;;;;;7.00;99.90;;;;;;4979949;28;19926;-90
2023/03/13 00:44:35;;;;;;;;;;;7.00;99.90;;;;;;4977655;28;19932;-90
2023/03/13 00:47:04;;;;;;;;;;;7.00;99.90;;;;;;4956026;28;19929;-90
2023/03/13 00:49:32;;;;;;;;;;;6.90;99.90;;;;;;4972923;28;19927;-89
2023/03/13 00:51:59;;;;;;;;;;;7.00;99.90;;;;;;4968022;28;20426;-90
2023/03/13 00:54:26;;;;;;;;;;;7.00;99.90;;;;;;4971923;28;19977;-91
2023/03/13 00:56:53;;;;;;;;;;;7.00;99.90;;;;;;4972284;28;19934;-90
2023/03/13 00:59:19;;;;;;;;;;;6.90;99.90;;;;;;4974391;28;19934;-90
2023/03/13 01:01:46;;;;;;;;;;;6.90;99.90;;;;;;4980516;28;19930;-90
2023/03/13 01:04:13;;;;;;;;;;;6.90;99.90;;;;;;4969500;28;20300;-91
2023/03/13 01:06:42;;;;;;;;;;;6.90;99.90;;;;;;4972312;28;20411;-90
2023/03/13 01:09:10;;;;;;;;;;;6.90;99.90;;;;;;4962369;28;19930;-90
2023/03/13 01:11:38;;;;;;;;;;;6.90;99.90;;;;;;4986829;28;19953;-89
2023/03/13 01:14:08;;;;;;;;;;;6.90;99.90;;;;;;4971999;28;19926;-92
2023/03/13 01:16:35;;;;;;;;;;;6.90;99.90;;;;;;4972754;28;19949;-90
2023/03/13 01:19:03;;;;;;;;;;;6.90;99.90;;;;;;4972684;28;20029;-90
2023/03/13 01:21:30;;;;;;;;;;;6.90;99.90;;;;;;4971086;28;19937;-90
2023/03/13 01:23:58;;;;;;;;;;;6.90;99.90;;;;;;4972918;28;19926;-91
2023/03/13 01:26:26;;;;;;;;;;;6.90;99.90;;;;;;4971299;28;19930;-91
2023/03/13 01:28:54;;;;;;;;;;;6.90;99.90;;;;;;4965861;28;19934;-90
2023/03/13 01:31:22;;;;;;;;;;;6.90;99.90;;;;;;4972229;28;19980;-90
2023/03/13 01:33:49;;;;;;;;;;;6.90;99.90;;;;;;4965679;28;19930;-90
2023/03/13 01:36:17;;;;;;;;;;;6.80;99.90;;;;;;4982207;28;19930;-91
2023/03/13 01:38:47;;;;;;;;;;;6.90;99.90;;;;;;4970079;28;19960;-90
2023/03/13 01:41:16;;;;;;;;;;;6.90;99.90;;;;;;4984359;28;19961;-90
2023/03/13 01:43:44;;;;;;;;;;;6.90;99.90;;;;;;4968920;28;19955;-90
2023/03/13 01:46:13;;;;;;;;;;;6.90;99.90;;;;;;4989529;28;19930;-92
2023/03/13 01:48:52;;;;;;;;;;;6.90;99.90;;;;;;4972792;28;20319;-89
2023/03/13 01:51:22;;;;;;;;;;;6.90;99.90;;;;;;4967642;28;19930;-91
2023/03/13 01:53:52;;;;;;;;;;;6.90;99.90;;;;;;4968357;28;19926;-90
2023/03/13 01:56:22;;;;;;;;;;;6.90;99.90;;;;;;4970018;28;19926;-91
2023/03/13 01:58:50;;;;;;;;;;;6.90;99.90;;;;;;4988721;28;19914;-91
2023/03/13 02:01:18;;;;;;;;;;;6.90;99.90;;;;;;4990769;28;19936;-93
2023/03/13 02:03:46;;;;;;;;;;;6.90;99.90;;;;;;4980334;28;19953;-93
2023/03/13 02:06:13;;;;;;;;;;;6.90;99.90;;;;;;4966676;28;20381;-91
2023/03/13 02:08:41;;;;;;;;;;;6.90;99.90;;;;;;4974069;28;19932;-90
2023/03/13 02:11:12;;;;;;;;;;;6.90;99.90;;;;;;4967447;28;19938;-91
2023/03/13 02:13:40;;;;;;;;;;;6.90;99.90;;;;;;4967104;28;20385;-90
2023/03/13 02:16:08;;;;;;;;;;;6.90;99.90;;;;;;4983995;28;19926;-91
2023/03/13 02:18:36;;;;;;;;;;;7.00;99.90;;;;;;4979049;28;19930;-90
2023/03/13 02:21:11;;;;;;;;;;;7.00;99.90;;;;;;4975211;28;19934;-90
2023/03/13 02:23:41;;;;;;;;;;;7.00;99.90;;;;;;4971479;28;19926;-90
2023/03/13 02:26:09;;;;;;;;;;;7.00;99.90;;;;;;4971515;28;19932;-91
2023/03/13 02:28:38;;;;;;;;;;;7.00;99.90;;;;;;4966460;28;19958;-90
2023/03/13 02:31:08;;;;;;;;;;;7.00;99.90;;;;;;4969589;28;19937;-90
2023/03/13 02:33:37;;;;;;;;;;;7.00;99.90;;;;;;4969968;28;19926;-91
2023/03/13 02:36:04;;;;;;;;;;;7.00;99.90;;;;;;4962926;28;20436;-91
2023/03/13 02:38:33;;;;;;;;;;;7.00;99.90;;;;;;4972019;28;19981;-90
2023/03/13 02:41:01;;;;;;;;;;;7.00;99.90;;;;;;4966567;28;19933;-91
2023/03/13 02:43:31;;;;;;;;;;;7.00;99.90;;;;;;4960897;28;20333;-90
2023/03/13 02:46:06;;;;;;;;;;;7.00;99.90;;;;;;4968754;28;19934;-90
2023/03/13 02:48:36;;;;;;;;;;;7.00;99.90;;;;;;4978978;28;19932;-90
2023/03/13 02:51:05;;;;;;;;;;;7.00;99.90;;;;;;4965224;28;19934;-91
2023/03/13 02:53:32;;;;;;;;;;;7.00;99.90;;;;;;4978286;28;19926;-91
2023/03/13 02:55:59;;;;;;;;;;;7.00;99.90;;;;;;4966760;28;20404;-91
2023/03/13 02:58:26;;;;;;;;;;;7.00;99.90;;;;;;4968615;28;20017;-91
2023/03/13 03:00:54;;;;;;;;;;;7.00;99.90;;;;;;4964029;28;19930;-92
2023/03/13 03:03:21;;;;;;;;;;;7.00;99.90;;;;;;4964192;28;20374;-91
2023/03/13 03:05:48;;;;;;;;;;;7.00;99.90;;;;;;4968614;28;20309;-90
2023/03/13 03:08:15;;;;;;;;;;;7.00;99.90;;;;;;4967853;28;19976;-91
2023/03/13 03:10:42;;;;;;;;;;;7.00;99.90;;;;;;4967160;28;19933;-91
2023/03/13 03:13:09;;;;;;;;;;;7.00;99.90;;;;;;4969604;28;19941;-90
2023/03/13 03:15:36;;;;;;;;;;;7.00;99.90;;;;;;4970466;28;20389;-90
2023/03/13 03:18:05;;;;;;;;;;;7.00;99.90;;;;;;4964223;28;19940;-92
2023/03/13 03:20:31;;;;;;;;;;;7.00;99.90;;;;;;4964817;28;20157;-92
2023/03/13 03:22:58;;;;;;;;;;;7.00;99.90;;;;;;4974809;28;19927;-91
2023/03/13 03:25:26;;;;;;;;;;;7.00;99.90;;;;;;4983328;28;19977;-91
2023/03/13 03:27:53;;;;;;;;;;;7.00;99.90;;;;;;4966020;28;19977;-90
2023/03/13 03:30:21;;;;;;;;;;;7.00;99.90;;;;;;4982694;28;20389;-90
2023/03/13 03:32:48;;;;;;;;;;;7.00;99.90;;;;;;4971223;28;19981;-91
2023/03/13 03:35:16;;;;;;;;;;;7.00;99.90;;;;;;4965196;28;19929;-90
2023/03/13 03:37:43;;;;;;;;;;;7.00;99.90;;;;;;4975879;28;20360;-91
2023/03/13 03:40:11;;;;;;;;;;;6.90;99.90;;;;;;4967104;28;19938;-92
2023/03/13 03:42:38;;;;;;;;;;;6.90;99.90;;;;;;4974589;28;19934;-91
2023/03/13 03:45:06;;;;;;;;;;;7.00;99.90;;;;;;4968419;28;20476;-90
2023/03/13 03:47:32;;;;;;;;;;;6.90;99.90;;;;;;4967063;28;19977;-91
2023/03/13 03:50:02;;;;;;;;;;;6.90;99.90;;;;;;4970120;28;20021;-91
2023/03/13 03:52:32;;;;;;;;;;;6.90;99.90;;;;;;4967128;28;19926;-91
2023/03/13 03:54:59;;;;;;;;;;;6.90;99.90;;;;;;4966086;28;19936;-90
2023/03/13 03:57:26;;;;;;;;;;;6.90;99.90;;;;;;4972520;28;19929;-91
2023/03/13 03:59:53;;;;;;;;;;;6.90;99.90;;;;;;4980826;28;20030;-91
2023/03/13 04:02:22;;;;;;;;;;;6.90;99.90;;;;;;4967955;28;19969;-91
2023/03/13 04:04:49;;;;;;;;;;;6.90;99.90;;;;;;4964504;28;20415;-91
2023/03/13 04:07:22;;;;;;;;;;;6.80;99.90;;;;;;4973882;28;19929;-91
2023/03/13 04:09:51;;;;;;;;;;;6.80;99.90;;;;;;4985584;28;19930;-91
2023/03/13 04:12:27;;;;;;;;;;;6.80;99.90;;;;;;4986872;28;19926;-90
2023/03/13 04:14:55;;;;;;;;;;;6.80;99.90;;;;;;4965945;28;19926;-91
2023/03/13 04:17:22;;;;;;;;;;;6.80;99.90;;;;;;4969867;28;19926;-90
2023/03/13 04:19:49;;;;;;;;;;;6.80;99.90;;;;;;4968879;28;19937;-90
2023/03/13 04:22:16;;;;;;;;;;;6.80;99.90;;;;;;4961522;28;20013;-89
2023/03/13 04:24:48;;;;;;;;;;;6.90;99.90;;;;;;4970857;28;19926;-90
2023/03/13 04:27:16;;;;;;;;;;;6.80;99.90;;;;;;4965849;28;20376;-90
2023/03/13 04:29:45;;;;;;;;;;;6.90;99.90;;;;;;4968849;28;19934;-91
2023/03/13 04:32:44;;;;;;;;;;;6.90;99.90;;;;;;4929246;28;20421;-91
2023/03/13 04:35:30;;;;;;;;;;;6.80;99.90;;;;;;4970447;28;19977;-91
2023/03/13 04:38:23;;;;;;;;;;;6.80;99.90;;;;;;4987100;28;19974;-83
2023/03/13 04:41:16;;;;;;;;;;;6.90;99.90;;;;;;4963207;28;19926;-90
2023/03/13 04:43:52;;;;;;;;;;;6.80;99.90;;;;;;4986908;28;19926;-90
2023/03/13 04:46:33;;;;;;;;;;;6.90;99.90;;;;;;4963999;28;19933;-90
2023/03/13 04:49:05;;;;;;;;;;;6.90;99.90;;;;;;4974302;28;20150;-91
2023/03/13 04:51:51;;;;;;;;;;;6.80;99.90;;;;;;4976199;28;20016;-90
2023/03/13 04:54:35;;;;;;;;;;;6.90;99.90;;;;;;4960965;28;19926;-90
2023/03/13 04:57:25;;;;;;;;;;;6.90;99.90;;;;;;4960620;28;19926;-90
2023/03/13 05:00:00;;;;;;;;;;;6.90;99.90;;;;;;4979276;28;20016;-91
2023/03/13 05:02:41;;;;;;;;;;;6.90;99.90;;;;;;4967344;28;19927;-88
2023/03/13 05:05:23;;;;;;;;;;;6.90;99.90;;;;;;4985542;28;20492;-90
2023/03/13 05:08:13;;;;;;;;;;;6.90;99.90;;;;;;4936218;28;20399;-89
2023/03/13 05:11:03;;;;;;;;;;;6.90;99.90;;;;;;4960980;28;19934;-91
2023/03/13 05:13:56;;;;;;;;;;;6.90;99.90;;;;;;4967157;28;20012;-89
2023/03/13 05:17:03;;;;;;;;;;;7.00;99.90;;;;;;4924138;29;19931;-91
2023/03/13 05:19:53;;;;;;;;;;;7.00;99.90;;;;;;4909713;29;19958;-92
2023/03/13 05:22:55;;;;;;;;;;;6.90;99.90;;;;;;4917700;29;20362;-90
2023/03/13 05:25:57;;;;;;;;;;;6.90;99.90;;;;;;4945276;28;19966;-91
2023/03/13 05:28:42;;;;;;;;;;;6.90;99.90;;;;;;4963788;28;19933;-89
2023/03/13 05:31:38;;;;;;;;;;;7.00;99.90;;;;;;4957642;28;19932;-91
2023/03/13 05:34:18;;;;;;;;;;;7.00;99.90;;;;;;4981783;28;19926;-90
2023/03/13 05:36:54;;;;;;;;;;;7.00;99.90;;;;;;4963206;28;19926;-91
2023/03/13 05:39:41;;;;;;;;;;;7.00;99.90;;;;;;4964546;28;19925;-90
2023/03/13 05:42:26;;;;;;;;;;;7.00;99.90;;;;;;4961173;28;19937;-90
2023/03/13 05:45:12;;;;;;;;;;;7.00;99.90;;;;;;4969831;28;19944;-91
2023/03/13 05:47:48;;;;;;;;;;;7.00;99.90;;;;;;4966019;28;20431;-89
2023/03/13 05:50:38;;;;;;;;;;;7.00;99.90;;;;;;4978828;28;19953;-89
2023/03/13 05:53:33;;;;;;;;;;;7.00;99.90;;;;;;4982422;28;19941;-90
2023/03/13 05:56:03;;;;;;;;;;;7.00;99.90;;;;;;4970984;28;19977;-90
2023/03/13 05:58:50;;;;;;;;;;;7.10;99.90;;;;;;4963242;28;19930;-90
2023/03/13 06:01:34;;;;;;;;;;;7.10;99.90;;;;;;4964987;28;21628;-91
2023/03/13 06:04:06;;;;;;;;;;;7.10;99.90;;;;;;4962072;28;19958;-90
2023/03/13 06:06:38;;;;;;;;;;;7.10;99.90;;;;;;4960998;28;20411;-80
2023/03/13 06:09:05;;;;;;;;;;;7.10;99.90;;;;;;4982968;28;19934;-81
2023/03/13 06:11:33;;;;;;;;;;;7.20;99.90;;;;;;4960742;28;19934;-89
2023/03/13 06:14:02;;;;;;;;;;;7.20;99.90;;;;;;4964297;28;19938;-89
2023/03/13 06:16:40;;;;;;;;;;;7.20;99.90;;;;;;4974940;28;19926;-90
2023/03/13 06:19:19;;;;;;;;;;;7.20;99.90;;;;;;4960587;28;19941;-89
2023/03/13 06:21:48;;;;;;;;;;;7.20;99.90;;;;;;4963844;28;19930;-90
2023/03/13 06:24:14;;;;;;;;;;;7.20;99.90;;;;;;4967086;28;19926;-90
2023/03/13 06:26:41;;;;;;;;;;;7.20;99.90;;;;;;4962195;28;19973;-88
2023/03/13 06:29:14;;;;;;;;;;;7.20;99.90;;;;;;4967481;28;20000;-88
2023/03/13 06:31:40;;;;;;;;;;;7.20;99.90;;;;;;4963397;28;19954;-89
2023/03/13 06:34:08;;;;;;;;;;;7.30;99.90;;;;;;4960521;28;19965;-89
2023/03/13 06:36:35;;;;;;;;;;;7.30;99.90;;;;;;4957460;28;19941;-89
2023/03/13 06:39:03;;;;;;;;;;;7.30;99.90;;;;;;4980803;28;19981;-90
2023/03/13 06:41:30;;;;;;;;;;;7.30;99.90;;;;;;4951506;28;19930;-88
2023/03/13 06:43:57;;;;;;;;;;;7.40;99.90;;;;;;4961916;28;20020;-89
2023/03/13 06:46:24;;;;;;;;;;;7.40;99.90;;;;;;4961114;28;20473;-88
2023/03/13 06:48:51;;;;;;;;;;;7.30;99.90;;;;;;4964132;28;20732;-88
2023/03/13 06:51:19;;;;;;;;;;;7.40;99.90;;;;;;4961682;28;19966;-88
2023/03/13 06:53:46;;;;;;;;;;;7.40;99.90;;;;;;4962740;28;20163;-89
2023/03/13 06:56:15;;;;;;;;;;;7.40;99.90;;;;;;4965470;28;19926;-89
2023/03/13 06:58:42;;;;;;;;;;;7.40;99.90;;;;;;4965202;28;20463;-89
2023/03/13 07:01:09;;;;;;;;;;;7.40;99.90;;;;;;4956888;28;19942;-88
2023/03/13 07:03:36;;;;;;;;;;;7.40;99.90;;;;;;4967802;28;19936;-89
2023/03/13 07:06:04;;;;;;;;;;;7.40;99.90;;;;;;4963736;28;19989;-87
2023/03/13 07:08:31;;;;;;;;;;;7.40;99.90;;;;;;4981592;28;20028;-88
2023/03/13 07:10:59;;;;;;;;;;;7.40;99.90;;;;;;4960853;28;19969;-89
2023/03/13 07:13:27;;;;;;;;;;;7.40;99.90;;;;;;4966008;28;19958;-89
2023/03/13 07:15:54;;;;;;;;;;;7.40;99.90;;;;;;4962753;28;19933;-87
2023/03/13 07:18:22;;;;;;;;;;;7.40;99.90;;;;;;4963241;28;20017;-88
2023/03/13 07:20:53;;;;;;;;;;;7.40;99.90;;;;;;4965047;28;20326;-87
2023/03/13 07:23:19;;;;;;;;;;;7.50;99.90;;;;;;4962804;28;19942;-87
2023/03/13 07:25:52;;;;;;;;;;;7.40;99.90;;;;;;4975556;28;20267;-87
2023/03/13 07:28:19;;;;;;;;;;;7.50;99.90;;;;;;4959954;28;20518;-87
2023/03/13 07:30:47;;;;;;;;;;;7.50;99.90;;;;;;4981479;28;20361;-87
2023/03/13 07:33:14;;;;;;;;;;;7.50;99.90;;;;;;4961962;28;20481;-86
2023/03/13 07:35:41;;;;;;;;;;;7.50;99.90;;;;;;4972900;28;19962;-87
2023/03/13 07:38:07;;;;;;;;;;;7.60;99.90;;;;;;4966878;28;19926;-88
2023/03/13 07:40:34;;;;;;;;;;;7.60;99.90;;;;;;4967631;28;19933;-90
2023/03/13 07:43:01;;;;;;;;;;;7.60;99.90;;;;;;4970754;28;19934;-88
2023/03/13 07:45:28;;;;;;;;;;;7.70;99.90;;;;;;4961633;28;19934;-88
2023/03/13 07:47:56;;;;;;;;;;;7.70;99.90;;;;;;4964213;28;20368;-88
2023/03/13 07:50:23;;;;;;;;;;;7.70;99.90;;;;;;4967536;28;19961;-88
2023/03/13 07:52:50;;;;;;;;;;;7.70;99.90;;;;;;4966768;28;19985;-86
2023/03/13 07:55:17;;;;;;;;;;;7.70;99.90;;;;;;4976217;28;19926;-88
2023/03/13 07:57:44;;;;;;;;;;;7.70;99.90;;;;;;4965945;28;19977;-86
2023/03/13 08:00:15;;;;;;;;;;;7.70;99.90;;;;;;4967179;28;20024;-90
2023/03/13 08:02:42;;;;;;;;;;;7.80;99.90;;;;;;4962277;28;19926;-88
2023/03/13 08:05:10;;;;;;;;;;;7.80;99.90;;;;;;4957545;28;20028;-88
2023/03/13 08:07:37;;;;;;;;;;;7.80;99.90;;;;;;4966527;28;19989;-90
2023/03/13 08:10:04;;;;;;;;;;;7.80;99.90;;;;;;4963910;28;19934;-89
2023/03/13 08:12:32;;;;;;;;;;;7.80;99.90;;;;;;4964414;28;20028;-87
2023/03/13 08:14:58;;;;;;;;;;;7.80;99.90;;;;;;4964247;28;20389;-87
2023/03/13 08:17:25;;;;;;;;;;;7.90;99.90;;;;;;4967613;28;20389;-87
2023/03/13 08:19:52;;;;;;;;;;;7.90;99.90;;;;;;4964105;28;19933;-88
2023/03/13 08:22:20;;;;;;;;;;;7.90;99.90;;;;;;4949580;28;20017;-88
2023/03/13 08:24:47;;;;;;;;;;;8.00;99.90;;;;;;4970028;28;19930;-87
2023/03/13 08:27:15;;;;;;;;;;;8.00;99.90;;;;;;4971381;28;19934;-87
2023/03/13 08:29:42;;;;;;;;;;;8.10;99.90;;;;;;4970425;28;19930;-89
2023/03/13 08:32:09;;;;;;;;;;;8.10;99.90;;;;;;4969947;28;20622;-88
2023/03/13 08:34:36;;;;;;;;;;;8.10;99.90;;;;;;4969269;28;20210;-88
2023/03/13 08:37:03;;;;;;;;;;;8.10;99.90;;;;;;4964821;28;20163;-88
2023/03/13 08:39:31;;;;;;;;;;;8.20;99.90;;;;;;4965981;28;19926;-89
2023/03/13 08:41:58;;;;;;;;;;;8.10;99.90;;;;;;4968553;28;19934;-89
2023/03/13 08:44:26;;;;;;;;;;;8.20;99.90;;;;;;4970270;28;19926;-88
2023/03/13 08:46:53;;;;;;;;;;;8.30;99.90;;;;;;4964704;28;19991;-90
2023/03/13 08:49:19;;;;;;;;;;;8.30;99.90;;;;;;4980139;28;19926;-87
2023/03/13 08:51:46;;;;;;;;;;;8.30;99.90;;;;;;4980378;28;20499;-90
2023/03/13 08:54:13;;;;;;;;;;;8.30;99.90;;;;;;4968205;28;19993;-88
2023/03/13 08:56:42;;;;;;;;;;;8.30;99.90;;;;;;4982179;28;19933;-88
2023/03/13 08:59:10;;;;;;;;;;;8.40;99.90;;;;;;4974809;28;19932;-88
2023/03/13 09:01:37;;;;;;;;;;;8.50;99.90;;;;;;4968304;28;19945;-89
2023/03/13 09:04:04;;;;;;;;;;;8.50;99.90;;;;;;4966944;28;19977;-87
2023/03/13 09:06:31;;;;;;;;;;;8.50;99.90;;;;;;4964269;28;20385;-88
2023/03/13 09:08:58;;;;;;;;;;;8.60;99.90;;;;;;4968188;28;19926;-87
2023/03/13 09:11:25;;;;;;;;;;;8.70;99.90;;;;;;4972523;28;19937;-88
2023/03/13 09:13:54;;;;;;;;;;;8.70;99.90;;;;;;4965017;28;20709;-89
2023/03/13 09:16:22;;;;;;;;;;;8.80;99.90;;;;;;4968642;28;20383;-89
2023/03/13 09:18:50;;;;;;;;;;;8.80;99.90;;;;;;4965973;28;19934;-89
2023/03/13 09:21:18;;;;;;;;;;;8.80;99.90;;;;;;4969866;28;20476;-86
2023/03/13 09:23:46;;;;;;;;;;;8.90;99.90;;;;;;4973948;28;19926;-88
2023/03/13 09:26:13;;;;;;;;;;;9.00;99.90;;;;;;4967277;28;19930;-88
2023/03/13 09:28:41;;;;;;;;;;;9.00;99.90;;;;;;4965351;28;20423;-86
2023/03/13 09:31:10;;;;;;;;;;;9.00;99.90;;;;;;4971032;28;19926;-90
2023/03/13 09:33:37;;;;;;;;;;;9.00;99.90;;;;;;4969337;28;19929;-88
2023/03/13 09:36:05;;;;;;;;;;;9.10;99.90;;;;;;4964700;28;19972;-89
2023/03/13 09:38:32;;;;;;;;;;;9.20;99.90;;;;;;4967264;28;20029;-90
2023/03/13 09:41:02;;;;;;;;;;;9.20;99.90;;;;;;4966862;28;19933;-88
2023/03/13 09:43:35;;;;;;;;;;;9.30;99.90;;;;;;4975407;28;19937;-88
2023/03/13 09:46:04;;;;;;;;;;;9.30;99.90;;;;;;4991214;28;19926;-90
2023/03/13 09:48:34;;;;;;;;;;;9.30;99.90;;;;;;4987945;28;19934;-89
2023/03/13 09:51:03;;;;;;;;;;;9.30;99.90;;;;;;4970338;28;20008;-88
2023/03/13 09:53:34;;;;;;;;;;;9.30;99.90;;;;;;4967901;28;19930;-86
2023/03/13 09:56:02;;;;;;;;;;;9.30;99.90;;;;;;4967480;28;20019;-88
2023/03/13 09:58:30;;;;;;;;;;;9.30;99.90;;;;;;4965924;28;19926;-89
2023/03/13 10:00:58;;;;;;;;;;;9.40;99.90;;;;;;4965132;28;20451;-86
2023/03/13 10:03:27;;;;;;;;;;;9.50;99.90;;;;;;4960985;28;20340;-86
2023/03/13 10:05:57;;;;;;;;;;;9.50;99.90;;;;;;4969052;28;20671;-87
2023/03/13 10:08:24;;;;;;;;;;;9.50;99.90;;;;;;4974600;28;19930;-88
2023/03/13 10:10:53;;;;;;;;;;;9.60;99.90;;;;;;4970711;28;20009;-86
2023/03/13 10:13:23;;;;;;;;;;;9.60;99.90;;;;;;4977088;28;19996;-86
2023/03/13 10:15:52;;;;;;;;;;;9.70;99.90;;;;;;4966920;28;19977;-87
2023/03/13 10:18:20;;;;;;;;;;;9.70;99.90;;;;;;4979890;28;20312;-87
2023/03/13 10:20:49;;;;;;;;;;;9.80;99.90;;;;;;4967201;28;19935;-87
2023/03/13 10:23:19;;;;;;;;;;;9.80;99.90;;;;;;4966188;28;19932;-86
2023/03/13 10:25:46;;;;;;;;;;;9.80;99.90;;;;;;4965250;28;19973;-87
2023/03/13 10:28:14;;;;;;;;;;;9.90;99.90;;;;;;4967362;28;19934;-87
2023/03/13 10:30:43;;;;;;;;;;;10.00;99.90;;;;;;4948674;28;20041;-86
2023/03/13 10:33:20;;;;;;;;;;;10.10;99.90;;;;;;4967944;28;19933;-87
2023/03/13 10:35:59;;;;;;;;;;;10.10;99.90;;;;;;4963698;28;19931;-87
2023/03/13 10:38:27;;;;;;;;;;;10.20;99.90;;;;;;4964876;28;19927;-86
2023/03/13 10:40:56;;;;;;;;;;;10.20;99.90;;;;;;4961471;28;19932;-87
2023/03/13 10:43:25;;;;;;;;;;;10.20;99.90;;;;;;4963656;28;19930;-87
2023/03/13 10:45:52;;;;;;;;;;;10.30;99.90;;;;;;4966223;28;19926;-87
2023/03/13 10:48:20;;;;;;;;;;;10.40;99.90;;;;;;4957158;28;20006;-86
2023/03/13 10:50:47;;;;;;;;;;;10.40;99.90;;;;;;4965670;28;19978;-87
2023/03/13 10:53:25;;;;;;;;;;;10.40;99.90;;;;;;4968561;28;19926;-87
2023/03/13 10:55:57;;;;;;;;;;;10.40;99.90;;;;;;4979032;28;19927;-87
2023/03/13 10:58:28;;;;;;;;;;;10.50;99.90;;;;;;4963699;28;19934;-86
2023/03/13 11:01:08;;;;;;;;;;;10.50;99.90;;;;;;4963368;28;19973;-89
2023/03/13 11:03:35;;;;;;;;;;;10.50;99.90;;;;;;4978722;28;19961;-86
2023/03/13 11:06:03;;;;;;;;;;;10.50;99.90;;;;;;4965840;28;20397;-86
2023/03/13 11:08:34;;;;;;;;;;;10.60;99.90;;;;;;4968055;28;19926;-88
2023/03/13 11:11:04;;;;;;;;;;;10.60;99.90;;;;;;4967200;28;20016;-88
2023/03/13 11:13:35;;;;;;;;;;;10.60;99.90;;;;;;4964568;28;19980;-87
2023/03/13 11:16:10;;;;;;;;;;;10.70;99.90;;;;;;4963402;28;20389;-89
2023/03/13 11:18:39;;;;;;;;;;;10.80;99.90;;;;;;4970300;28;19956;-88
2023/03/13 11:21:06;;;;;;;;;;;10.90;99.90;;;;;;4964914;28;20145;-89
2023/03/13 11:23:36;;;;;;;;;;;11.00;99.90;;;;;;4968604;28;19930;-89
2023/03/13 11:26:10;;;;;;;;;;;11.00;99.90;;;;;;4963605;28;19934;-89
2023/03/13 11:28:43;;;;;;;;;;;11.10;99.90;;;;;;4971468;28;19930;-88
2023/03/13 11:31:12;;;;;;;;;;;11.10;99.90;;;;;;4969049;28;20008;-88
2023/03/13 11:33:46;;;;;;;;;;;11.10;99.90;;;;;;4967578;28;20329;-88
2023/03/13 11:36:18;;;;;;;;;;;11.20;99.90;;;;;;4963963;28;19942;-88
2023/03/13 11:38:48;;;;;;;;;;;11.20;99.90;;;;;;4965898;28;20414;-88
2023/03/13 11:41:21;;;;;;;;;;;11.40;99.90;;;;;;4965086;28;19926;-88
2023/03/13 11:43:57;;;;;;;;;;;11.40;99.90;;;;;;4963014;28;19974;-87
2023/03/13 11:46:30;;;;;;;;;;;11.40;99.90;;;;;;4971143;28;19930;-88
2023/03/13 11:49:09;;;;;;;;;;;11.50;99.90;;;;;;4963251;28;19930;-88
2023/03/13 11:51:41;;;;;;;;;;;11.50;99.90;;;;;;4978760;28;20019;-88
2023/03/13 11:54:32;;;;;;;;;;;11.60;99.90;;;;;;4968694;28;19930;-88
2023/03/13 11:57:05;;;;;;;;;;;11.60;99.90;;;;;;4961893;28;19989;-89
2023/03/13 11:59:36;;;;;;;;;;;11.70;99.90;;;;;;4967479;28;20312;-88
2023/03/13 12:02:07;;;;;;;;;;;11.90;99.90;;;;;;4968781;28;19944;-89
2023/03/13 12:04:36;;;;;;;;;;;11.90;99.90;;;;;;4974189;28;20028;-87
2023/03/13 12:07:06;;;;;;;;;;;12.00;99.90;;;;;;4969096;28;19940;-88
2023/03/13 12:09:34;;;;;;;;;;;12.00;99.90;;;;;;4971143;28;19926;-88
2023/03/13 12:12:04;;;;;;;;;;;12.10;99.90;;;;;;4979813;28;19930;-88
2023/03/13 12:14:33;;;;;;;;;;;12.10;99.90;;;;;;4970206;28;19958;-89
2023/03/13 12:17:03;;;;;;;;;;;12.20;99.90;;;;;;4971653;28;19941;-88
2023/03/13 12:19:32;;;;;;;;;;;12.20;99.90;;;;;;4969226;28;20381;-88
2023/03/13 12:22:04;;;;;;;;;;;12.20;99.90;;;;;;4966053;28;19954;-88
2023/03/13 12:24:34;;;;;;;;;;;12.30;99.90;;;;;;4972691;28;20016;-88
2023/03/13 12:27:05;;;;;;;;;;;12.30;99.90;;;;;;4990274;28;19926;-88
2023/03/13 12:29:41;;;;;;;;;;;12.40;99.90;;;;;;4965142;28;19966;-89
2023/03/13 12:32:11;;;;;;;;;;;12.30;99.90;;;;;;4972741;28;19981;-89
2023/03/13 12:34:42;;;;;;;;;;;12.40;99.90;;;;;;4973555;28;19961;-88
2023/03/13 12:37:12;;;;;;;;;;;12.40;99.90;;;;;;4966747;28;19930;-88
2023/03/13 12:39:41;;;;;;;;;;;12.40;99.90;;;;;;4966354;28;19934;-88
2023/03/13 12:42:19;;;;;;;;;;;12.40;99.90;;;;;;4968119;28;19992;-90
2023/03/13 12:44:47;;;;;;;;;;;12.50;99.90;;;;;;4970150;28;20282;-88
2023/03/13 12:47:17;;;;;;;;;;;12.50;99.90;;;;;;4970787;28;20164;-87
2023/03/13 12:50:04;;;;;;;;;;;12.50;99.90;;;;;;4971075;28;19933;-89
2023/03/13 12:52:47;;;;;;;;;;;12.50;99.90;;;;;;4972749;28;19954;-88
2023/03/13 12:55:29;;;;;;;;;;;12.50;99.90;;;;;;4970996;28;19929;-88
2023/03/13 12:58:07;;;;;;;;;;;12.60;99.90;;;;;;4978779;28;19926;-87
2023/03/13 13:00:37;;;;;;;;;;;12.70;99.90;;;;;;4966777;28;19964;-88
2023/03/13 13:03:09;;;;;;;;;;;12.70;99.90;;;;;;4970773;28;19980;-88
2023/03/13 13:05:36;;;;;;;;;;;12.80;99.90;;;;;;4969397;28;19930;-87
2023/03/13 13:08:03;;;;;;;;;;;12.80;99.90;;;;;;4971391;28;19934;-89
2023/03/13 13:10:30;;;;;;;;;;;12.80;99.90;;;;;;4969498;28;19952;-88
2023/03/13 13:13:16;;;;;;;;;;;12.90;99.90;;;;;;4968778;28;19932;-89
2023/03/13 13:15:46;;;;;;;;;;;12.90;99.90;;;;;;4970430;28;20293;-87
2023/03/13 13:18:15;;;;;;;;;;;13.00;99.90;;;;;;4969755;28;19933;-87
2023/03/13 13:20:44;;;;;;;;;;;12.90;99.90;;;;;;4970960;28;20018;-88
2023/03/13 13:23:25;;;;;;;;;;;13.00;99.90;;;;;;4964157;28;19926;-87
2023/03/13 13:25:52;;;;;;;;;;;13.00;99.90;;;;;;4968717;28;19926;-89
2023/03/13 13:28:32;;;;;;;;;;;13.10;99.90;;;;;;4971150;28;19941;-87
2023/03/13 13:31:00;;;;;;;;;;;13.10;99.90;;;;;;4966026;28;19930;-89
2023/03/13 13:33:37;;;;;;;;;;;13.20;99.90;;;;;;4970084;28;20399;-87
2023/03/13 13:36:27;;;;;;;;;;;13.20;99.90;;;;;;4987562;28;19926;-88
2023/03/13 13:38:54;;;;;;;;;;;13.20;99.90;;;;;;4980926;28;20180;-88
2023/03/13 13:41:24;;;;;;;;;;;13.30;99.90;;;;;;4994710;28;19926;-89
2023/03/13 13:44:19;;;;;;;;;;;13.50;99.90;;;;;;4997979;28;19962;-88
2023/03/13 13:46:48;;;;;;;;;;;13.40;99.90;;;;;;4985497;28;20000;-89
2023/03/13 13:49:16;;;;;;;;;;;13.40;99.90;;;;;;4969580;28;19935;-88
2023/03/13 13:52:03;;;;;;;;;;;13.50;99.90;;;;;;4969026;28;20317;-88
2023/03/13 13:54:34;;;;;;;;;;;13.60;99.90;;;;;;4971320;28;20320;-87
2023/03/13 13:57:02;;;;;;;;;;;13.70;99.90;;;;;;4966070;28;20054;-88
2023/03/13 13:59:39;;;;;;;;;;;13.80;99.90;;;;;;4967435;28;19934;-87
2023/03/13 14:02:24;;;;;;;;;;;13.90;99.90;;;;;;4968172;28;20001;-88
2023/03/13 14:04:56;;;;;;;;;;;14.00;99.90;;;;;;4967552;28;20392;-88
2023/03/13 14:07:29;;;;;;;;;;;14.00;99.90;;;;;;4984113;28;19926;-88
2023/03/13 14:10:02;;;;;;;;;;;14.00;99.90;;;;;;4983422;28;19941;-88
2023/03/13 14:12:31;;;;;;;;;;;14.20;99.90;;;;;;4967365;28;19997;-87
2023/03/13 14:15:08;;;;;;;;;;;14.10;99.90;;;;;;4970902;28;19976;-87
2023/03/13 14:17:40;;;;;;;;;;;14.20;99.90;;;;;;4973929;28;20379;-89
2023/03/13 14:20:16;;;;;;;;;;;14.10;99.90;;;;;;4968447;28;20308;-88
2023/03/13 14:22:46;;;;;;;;;;;14.10;99.90;;;;;;4966538;28;19930;-88
2023/03/13 14:25:13;;;;;;;;;;;14.10;99.90;;;;;;4973356;28;19973;-88
2023/03/13 14:27:43;;;;;;;;;;;14.30;99.90;;;;;;4970556;28;20127;-88
2023/03/13 14:30:14;;;;;;;;;;;14.30;99.90;;;;;;4961020;28;20184;-88
2023/03/13 14:32:42;;;;;;;;;;;14.20;99.90;;;;;;4970260;28;19930;-88
2023/03/13 14:35:10;;;;;;;;;;;14.30;99.90;;;;;;4965730;28;19966;-87
2023/03/13 14:37:40;;;;;;;;;;;14.30;99.90;;;;;;4965027;28;19981;-88
2023/03/13 14:40:11;;;;;;;;;;;14.40;99.90;;;;;;4967256;28;19930;-88
2023/03/13 14:42:39;;;;;;;;;;;14.40;99.90;;;;;;4966843;28;19933;-88
2023/03/13 14:45:12;;;;;;;;;;;14.50;99.90;;;;;;4952173;28;20441;-86
2023/03/13 14:47:40;;;;;;;;;;;14.50;99.90;;;;;;4961843;28;20393;-86